.
WxDataArchive / Data Records for 2013-02-27
2013-02-26 February 2013 2013-02-28

Data Records for Wednesday, 27 February 2013

Time	Temp	Chill	HIndex	Humid	Dewpt	 Wind 	HiWind	WindDir	Rain 	Barom 
-----	----	-----	------	-----	-----	------	------	-------	-----	----- 
00:00	33.4	33.4	33.4	95	32.1	0	0	---	0.01	29.445 
00:05	33.4	33.4	33.4	95	32.1	0	0	---	0.00	29.445 
00:10	33.4	33.4	33.4	95	32.1	0	0	---	0.00	29.445 
00:15	33.2	33.2	33.2	95	31.9	0	0	---	0.01	29.448 
00:20	33.2	33.2	33.2	95	31.9	0	0	---	0.00	29.448 
00:25	33.2	33.2	33.2	95	31.9	0	0	---	0.00	29.448 
00:30	33.2	33.2	33.2	95	31.9	0	0	---	0.00	29.452 
00:35	33.1	33.1	33.1	95	31.8	0	0	---	0.01	29.452 
00:40	33.1	33.1	33.1	95	31.8	0	0	---	0.00	29.452 
00:45	33.1	33.1	33.1	95	31.8	0	0	---	0.00	29.453 
00:50	32.9	32.9	32.9	95	31.6	0	0	---	0.01	29.453 
00:55	32.9	32.9	32.9	95	31.6	0	0	---	0.00	29.453 
01:00	32.9	32.9	32.9	95	31.6	0	0	---	0.00	29.455 
01:05	32.8	32.8	32.8	95	31.5	0	0	---	0.00	29.455 
01:10	32.8	32.8	32.8	96	31.8	0	0	---	0.01	29.455 
01:15	32.9	32.9	32.9	96	31.9	0	0	---	0.00	29.456 
01:20	32.9	32.9	32.9	95	31.6	0	0	---	0.00	29.456 
01:25	32.8	32.8	32.8	95	31.5	0	0	---	0.00	29.456 
01:30	32.8	32.8	32.8	96	31.8	0	0	---	0.00	29.457 
01:35	32.8	32.8	32.8	96	31.8	0	0	---	0.00	29.457 
01:40	32.8	32.8	32.8	96	31.8	0	0	---	0.00	29.457 
01:45	32.8	32.8	32.8	96	31.8	0	0	---	0.00	29.463 
01:50	32.7	32.7	32.7	96	31.7	0	0	---	0.00	29.463 
01:55	32.7	32.7	32.7	96	31.7	0	0	---	0.00	29.463 
02:00	32.7	32.7	32.7	96	31.7	0	0	---	0.00	29.466 
02:05	32.7	32.7	32.7	96	31.7	0	0	---	0.00	29.466 
02:10	32.5	32.5	32.5	96	31.5	0	0	---	0.00	29.466 
02:15	32.7	32.7	32.7	96	31.7	0	1	90	0.01	29.468 
02:20	32.7	32.7	32.7	96	31.7	0	1	90	0.00	29.468 
02:25	32.7	32.7	32.7	96	31.7	0	2	135	0.00	29.468 
02:30	32.7	32.7	32.7	96	31.7	0	1	135	0.00	29.468 
02:35	32.8	32.8	32.8	96	31.8	0	2	158	0.01	29.468 
02:40	32.8	32.8	32.8	96	31.8	0	2	202	0.00	29.468 
02:45	32.9	32.9	32.9	96	31.9	0	3	270	0.00	29.468 
02:50	32.9	32.9	32.9	96	31.9	0	2	270	0.01	29.468 
02:55	32.9	32.9	32.9	96	31.9	0	3	270	0.00	29.468 
03:00	33.1	33.1	33.1	96	32.1	0	3	270	0.01	29.465 
03:05	33.1	33.1	33.1	96	32.1	1	3	248	0.00	29.465 
03:10	33.2	33.2	33.2	96	32.2	1	3	248	0.01	29.465 
03:15	33.2	33.2	33.2	96	32.2	1	3	248	0.00	29.464 
03:20	33.4	33.4	33.4	96	32.4	1	3	248	0.01	29.464 
03:25	33.5	33.5	33.5	96	32.5	1	4	248	0.00	29.464 
03:30	33.5	33.5	33.5	96	32.5	1	3	248	0.01	29.467 
03:35	33.5	33.5	33.5	96	32.5	1	2	248	0.00	29.467 
03:40	33.7	33.7	33.7	96	32.7	1	4	248	0.01	29.467 
03:45	33.7	33.7	33.7	96	32.7	2	4	248	0.00	29.463 
03:50	33.7	33.7	33.7	96	32.7	2	5	248	0.01	29.463 
03:55	33.7	33.7	33.7	96	32.7	1	4	248	0.00	29.463 
04:00	33.7	33.7	33.7	96	32.7	1	5	248	0.01	29.466 
04:05	33.7	33.7	33.7	96	32.7	1	4	248	0.00	29.466 
04:10	33.7	33.7	33.7	96	32.7	1	5	248	0.01	29.466 
04:15	33.7	33.7	33.7	96	32.7	1	4	248	0.00	29.468 
04:20	33.7	33.7	33.7	96	32.7	1	4	248	0.00	29.468 
04:25	33.7	33.7	33.7	96	32.7	1	5	248	0.00	29.468 
04:30	33.7	33.7	33.7	96	32.7	1	3	248	0.01	29.470 
04:35	33.5	33.5	33.5	96	32.5	1	3	248	0.00	29.470 
04:40	33.5	33.5	33.5	96	32.5	0	2	248	0.00	29.470 
04:45	33.4	33.4	33.4	96	32.4	1	4	248	0.00	29.474 
04:50	33.4	33.4	33.4	96	32.4	0	2	248	0.00	29.474 
04:55	33.4	33.4	33.4	96	32.4	0	2	248	0.00	29.474 
05:00	33.2	33.2	33.2	96	32.2	0	3	248	0.01	29.475 
05:05	33.2	33.2	33.2	96	32.2	0	3	248	0.00	29.475 
05:10	33.1	33.1	33.1	96	32.1	0	3	248	0.00	29.475 
05:15	33.1	33.1	33.1	96	32.1	0	2	248	0.00	29.480 
05:20	33.1	33.1	33.1	96	32.1	1	3	248	0.00	29.480 
05:25	33.1	33.1	33.1	96	32.1	0	2	248	0.00	29.480 
05:30	33.1	33.1	33.1	96	32.1	0	2	248	0.00	29.483 
05:35	32.9	32.9	32.9	96	31.9	1	3	248	0.00	29.483 
05:40	32.9	32.9	32.9	96	31.9	0	2	248	0.00	29.483 
05:45	32.9	32.9	32.9	96	31.9	1	3	248	0.00	29.486 
05:50	32.9	32.9	32.9	96	31.9	1	3	248	0.00	29.486 
05:55	32.8	32.8	32.8	96	31.8	0	3	248	0.00	29.486 
06:00	32.8	32.8	32.8	96	31.8	1	3	248	0.01	29.488 
06:05	32.8	32.8	32.8	96	31.8	0	3	248	0.00	29.488 
06:10	32.8	32.8	32.8	96	31.8	1	3	248	0.00	29.488 
06:15	32.8	32.8	32.8	96	31.8	0	2	248	0.00	29.497 
06:20	32.8	32.8	32.8	96	31.8	0	3	248	0.00	29.497 
06:25	32.8	32.8	32.8	96	31.8	1	3	248	0.00	29.497 
06:30	32.9	32.9	32.9	96	31.9	1	3	248	0.00	29.500 
06:35	32.9	32.9	32.9	96	31.9	1	3	248	0.00	29.500 
06:40	33.1	33.1	33.1	96	32.1	1	4	248	0.00	29.500 
06:45	33.1	33.1	33.1	96	32.1	1	3	248	0.01	29.507 
06:50	33.1	33.1	33.1	96	32.1	1	5	248	0.00	29.507 
06:55	33.1	33.1	33.1	96	32.1	1	5	248	0.00	29.507 
07:00	33.1	33.1	33.1	96	32.1	1	6	248	0.00	29.514 
07:05	33.1	33.1	33.1	96	32.1	1	5	248	0.00	29.514 
07:10	33.1	33.1	33.1	96	32.1	2	7	248	0.00	29.514 
07:15	32.9	32.9	32.9	96	31.9	2	6	248	0.00	29.517 
07:20	32.9	32.9	32.9	96	31.9	1	4	248	0.01	29.517 
07:25	32.9	32.9	32.9	96	31.9	1	4	248	0.00	29.517 
07:30	32.9	32.9	32.9	96	31.9	1	4	248	0.00	29.519 
07:35	32.9	32.9	32.9	96	31.9	1	6	248	0.00	29.519 
07:40	32.9	32.9	32.9	96	31.9	1	5	248	0.00	29.519 
07:45	32.9	32.9	32.9	96	31.9	1	4	248	0.00	29.529 
07:50	33.1	33.1	33.1	96	32.1	1	4	248	0.00	29.529 
07:55	33.1	33.1	33.1	96	32.1	1	3	248	0.00	29.529 
08:00	33.1	33.1	33.1	96	32.1	1	4	248	0.01	29.532 
08:05	33.2	33.2	33.2	96	32.2	1	5	248	0.00	29.532 
08:10	33.2	33.2	33.2	96	32.2	1	4	248	0.00	29.532 
08:15	33.2	33.2	33.2	96	32.2	1	3	248	0.00	29.538 
08:20	33.2	33.2	33.2	96	32.2	2	6	248	0.00	29.538 
08:25	33.2	33.2	33.2	96	32.2	2	5	248	0.00	29.538 
08:30	33.2	33.2	33.2	96	32.2	1	4	248	0.00	29.547 
08:35	33.2	33.2	33.2	96	32.2	1	4	248	0.00	29.547 
08:40	33.2	33.2	33.2	96	32.2	1	5	248	0.00	29.547 
08:45	33.2	33.2	33.2	96	32.2	1	4	248	0.01	29.552 
08:50	33.2	33.2	33.2	96	32.2	1	2	248	0.00	29.552 
08:55	33.2	33.2	33.2	96	32.2	1	5	248	0.00	29.552 
09:00	33.2	33.2	33.2	96	32.2	0	2	270	0.00	29.561 
09:05	33.2	33.2	33.2	96	32.2	1	4	270	0.00	29.561 
09:10	33.2	33.2	33.2	96	32.2	1	2	248	0.00	29.561 
09:15	33.2	33.2	33.2	96	32.2	2	6	248	0.00	29.562 
09:20	33.2	33.2	33.2	96	32.2	1	4	225	0.00	29.562 
09:25	33.2	33.2	33.2	96	32.2	1	6	225	0.01	29.562 
09:30	33.1	33.1	33.1	96	32.1	1	4	248	0.00	29.564 
09:35	33.1	33.1	33.1	96	32.1	0	2	248	0.00	29.564 
09:40	33.1	33.1	33.1	96	32.1	1	7	248	0.00	29.564 
09:45	33.1	33.1	33.1	96	32.1	1	3	248	0.00	29.565 
09:50	33.1	33.1	33.1	96	32.1	2	5	248	0.00	29.565 
09:55	33.1	33.1	33.1	96	32.1	0	3	248	0.01	29.565 
10:00	33.1	33.1	33.1	96	32.1	1	5	248	0.00	29.569 
10:05	33.1	33.1	33.1	96	32.1	0	2	248	0.00	29.569 
10:10	33.2	33.2	33.2	96	32.2	1	3	248	0.00	29.569 
10:15	33.2	33.2	33.2	96	32.2	1	5	248	0.00	29.572 
10:20	33.2	33.2	33.2	96	32.2	1	4	248	0.01	29.572 
10:25	33.2	33.2	33.2	96	32.2	1	3	248	0.00	29.572 
10:30	33.2	33.2	33.2	96	32.2	1	5	248	0.00	29.575 
10:35	33.2	33.2	33.2	96	32.2	1	3	248	0.00	29.575 
10:40	33.4	33.4	33.4	96	32.4	1	5	248	0.00	29.575 
10:45	33.4	33.4	33.4	96	32.4	1	3	248	0.00	29.576 
10:50	33.2	33.2	33.2	96	32.2	2	6	248	0.00	29.576 
10:55	33.2	33.2	33.2	96	32.2	2	5	248	0.01	29.576 
11:00	33.4	33.4	33.4	96	32.4	2	5	248	0.00	29.576 
11:05	33.4	33.4	33.4	96	32.4	2	5	248	0.00	29.576 
11:10	33.4	33.4	33.4	96	32.4	1	4	248	0.00	29.576 
11:15	33.4	33.4	33.4	96	32.4	1	3	248	0.00	29.576 
11:20	33.4	33.4	33.4	96	32.4	1	4	248	0.01	29.576 
11:25	33.4	33.4	33.4	96	32.4	1	4	248	0.00	29.576 
11:30	33.4	33.4	33.4	96	32.4	1	4	248	0.00	29.578 
11:35	33.4	33.4	33.4	96	32.4	1	5	270	0.00	29.578 
11:40	33.5	33.5	33.5	96	32.5	1	5	248	0.00	29.578 
11:45	33.5	33.5	33.5	96	32.5	1	5	248	0.01	29.578 
11:50	33.7	33.7	33.7	96	32.7	1	4	248	0.00	29.578 
11:55	33.7	33.7	33.7	96	32.7	1	6	248	0.00	29.578 
12:00	33.7	33.7	33.7	96	32.7	1	3	248	0.00	29.579 
12:05	33.7	33.7	33.7	96	32.7	2	5	248	0.00	29.579 
12:10	33.8	33.8	33.8	96	32.8	1	2	225	0.00	29.579 
12:15	33.8	33.8	33.8	96	32.8	1	4	225	0.00	29.578 
12:20	33.8	33.8	33.8	96	32.8	2	9	248	0.00	29.578 
12:25	33.8	33.8	33.8	96	32.8	1	4	248	0.00	29.578 
12:30	34.0	34.0	34.0	96	33.0	1	4	248	0.00	29.577 
12:35	34.1	34.1	34.1	96	33.1	1	5	248	0.00	29.577 
12:40	34.1	34.1	34.1	96	33.1	2	6	248	0.00	29.577 
12:45	34.1	34.1	34.1	96	33.1	1	4	248	0.00	29.576 
12:50	34.1	34.1	34.1	96	33.1	2	6	248	0.00	29.576 
12:55	34.0	34.0	34.0	96	33.0	3	11	248	0.00	29.576 
13:00	34.1	34.1	34.1	96	33.1	1	4	248	0.00	29.574 
13:05	34.1	34.1	34.1	96	33.1	1	4	248	0.00	29.574 
13:10	34.0	34.0	34.0	95	32.7	1	5	248	0.00	29.574 
13:15	33.8	33.8	33.8	95	32.5	2	5	248	0.00	29.574 
13:20	33.8	33.8	33.8	95	32.5	1	4	248	0.00	29.574 
13:25	33.7	33.7	33.7	95	32.4	3	9	248	0.00	29.574 
13:30	33.7	33.7	33.7	95	32.4	2	7	248	0.00	29.574 
13:35	33.5	33.5	33.5	95	32.2	2	7	248	0.00	29.574 
13:40	33.5	33.5	33.5	95	32.2	3	7	248	0.00	29.574 
13:45	33.7	33.7	33.7	95	32.4	1	5	248	0.00	29.575 
13:50	33.8	33.8	33.8	95	32.5	1	3	248	0.00	29.575 
13:55	33.7	33.7	33.7	95	32.4	3	10	248	0.00	29.575 
14:00	33.7	33.7	33.7	95	32.4	2	6	248	0.00	29.576 
14:05	33.7	33.7	33.7	95	32.4	2	7	248	0.00	29.576 
14:10	33.7	33.7	33.7	95	32.4	1	4	248	0.00	29.576 
14:15	33.7	33.7	33.7	95	32.4	1	7	248	0.00	29.577 
14:20	33.7	33.7	33.7	95	32.4	1	4	248	0.00	29.577 
14:25	33.7	33.7	33.7	95	32.4	1	4	248	0.00	29.577 
14:30	33.7	33.7	33.7	95	32.4	2	7	248	0.00	29.575 
14:35	33.7	33.7	33.7	95	32.4	1	7	225	0.00	29.575 
14:40	33.7	33.7	33.7	94	32.2	1	3	248	0.00	29.575 
14:45	33.7	33.7	33.7	94	32.2	1	4	248	0.00	29.576 
14:50	33.7	33.7	33.7	94	32.2	1	5	248	0.00	29.576 
14:55	33.7	33.7	33.7	94	32.2	2	6	248	0.00	29.576 
15:00	33.7	33.7	33.7	94	32.2	0	4	225	0.00	29.577 
15:05	33.8	33.8	33.8	94	32.3	0	2	225	0.00	29.577 
15:10	33.8	33.8	33.8	94	32.3	1	6	225	0.00	29.577 
15:15	33.8	33.8	33.8	94	32.3	1	4	248	0.00	29.576 
15:20	33.8	33.8	33.8	94	32.3	1	6	248	0.00	29.576 
15:25	33.8	33.8	33.8	94	32.3	1	4	248	0.00	29.576 
15:30	33.8	33.8	33.8	94	32.3	1	4	248	0.00	29.578 
15:35	33.8	33.8	33.8	94	32.3	1	5	248	0.00	29.578 
15:40	33.8	33.8	33.8	93	32.0	2	5	248	0.00	29.578 
15:45	33.8	33.8	33.8	93	32.0	1	4	248	0.00	29.578 
15:50	33.7	33.7	33.7	93	31.9	1	4	248	0.00	29.578 
15:55	33.7	33.7	33.7	93	31.9	1	5	248	0.00	29.578 
16:00	33.5	33.5	33.5	93	31.7	1	5	248	0.00	29.580 
16:05	33.4	33.4	33.4	93	31.6	1	4	248	0.00	29.580 
16:10	33.4	33.4	33.4	93	31.6	1	5	248	0.00	29.580 
16:15	33.4	33.4	33.4	93	31.6	1	4	270	0.00	29.586 
16:20	33.2	33.2	33.2	93	31.4	0	2	270	0.00	29.586 
16:25	33.2	33.2	33.2	93	31.4	1	3	270	0.00	29.586 
16:30	33.2	33.2	33.2	93	31.4	1	3	248	0.00	29.587 
16:35	33.1	33.1	33.1	93	31.3	1	5	248	0.00	29.587 
16:40	33.1	33.1	33.1	93	31.3	1	4	248	0.00	29.587 
16:45	33.1	33.1	33.1	93	31.3	1	4	248	0.00	29.591 
16:50	33.1	33.1	33.1	93	31.3	1	4	248	0.00	29.591 
16:55	32.9	32.9	32.9	93	31.1	1	3	248	0.00	29.591 
17:00	32.9	32.9	32.9	93	31.1	1	4	248	0.00	29.594 
17:05	32.9	32.9	32.9	93	31.1	1	3	248	0.00	29.594 
17:10	32.9	32.9	32.9	93	31.1	1	5	248	0.00	29.594 
17:15	32.9	32.9	32.9	93	31.1	1	3	248	0.00	29.594 
17:20	32.9	32.9	32.9	93	31.1	1	3	248	0.00	29.594 
17:25	32.8	32.8	32.8	93	31.0	1	2	248	0.00	29.594 
17:30	32.8	32.8	32.8	93	31.0	1	3	248	0.00	29.596 
17:35	32.8	32.8	32.8	93	31.0	0	3	248	0.00	29.596 
17:40	32.8	32.8	32.8	94	31.3	1	6	248	0.00	29.596 
17:45	32.8	32.8	32.8	94	31.3	1	4	248	0.00	29.601 
17:50	32.8	32.8	32.8	94	31.3	1	3	248	0.00	29.601 
17:55	32.7	32.7	32.7	94	31.2	1	4	248	0.01	29.601 
18:00	32.7	32.7	32.7	94	31.2	1	3	248	0.00	29.608 
18:05	32.7	32.7	32.7	94	31.2	1	3	248	0.00	29.608 
18:10	32.7	32.7	32.7	94	31.2	0	2	248	0.00	29.608 
18:15	32.7	32.7	32.7	94	31.2	1	3	248	0.00	29.610 
18:20	32.7	32.7	32.7	94	31.2	1	4	248	0.00	29.610 
18:25	32.5	32.5	32.5	94	31.0	1	3	248	0.00	29.610 
18:30	32.5	32.5	32.5	94	31.0	1	4	248	0.00	29.611 
18:35	32.5	32.5	32.5	94	31.0	1	2	248	0.00	29.611 
18:40	32.5	32.5	32.5	94	31.0	1	5	248	0.00	29.611 
18:45	32.4	32.4	32.4	94	30.9	1	5	248	0.00	29.615 
18:50	32.4	32.4	32.4	94	30.9	1	3	225	0.00	29.615 
18:55	32.4	32.4	32.4	94	30.9	1	5	225	0.00	29.615 
19:00	32.2	32.2	32.2	94	30.7	2	5	248	0.00	29.617 
19:05	32.2	32.2	32.2	94	30.7	1	4	248	0.00	29.617 
19:10	32.2	32.2	32.2	94	30.7	1	5	248	0.00	29.617 
19:15	32.2	32.2	32.2	94	30.7	2	5	248	0.00	29.620 
19:20	32.2	32.2	32.2	94	30.7	2	6	248	0.00	29.620 
19:25	32.2	32.2	32.2	94	30.7	1	3	248	0.00	29.620 
19:30	32.1	32.1	32.1	94	30.6	2	7	248	0.00	29.623 
19:35	32.1	32.1	32.1	94	30.6	2	5	248	0.00	29.623 
19:40	32.1	32.1	32.1	94	30.6	1	5	248	0.00	29.623 
19:45	31.9	31.9	31.9	94	30.4	1	4	248	0.00	29.626 
19:50	31.9	31.9	31.9	94	30.4	1	7	248	0.00	29.626 
19:55	31.9	31.9	31.9	94	30.4	1	5	248	0.00	29.626 
20:00	31.9	31.9	31.9	94	30.4	1	3	248	0.00	29.626 
20:05	31.9	31.9	31.9	94	30.4	1	3	248	0.00	29.626 
20:10	31.8	31.8	31.8	94	30.3	1	5	248	0.00	29.626 
20:15	31.8	31.8	31.8	94	30.3	1	3	248	0.00	29.626 
20:20	31.8	31.8	31.8	94	30.3	0	2	248	0.00	29.626 
20:25	31.8	31.8	31.8	94	30.3	1	5	248	0.00	29.626 
20:30	31.6	31.6	31.6	94	30.1	1	5	248	0.00	29.628 
20:35	31.6	31.6	31.6	94	30.1	1	4	248	0.00	29.628 
20:40	31.6	31.6	31.6	94	30.1	1	4	248	0.00	29.628 
20:45	31.5	31.5	31.5	94	30.0	1	3	248	0.00	29.626 
20:50	31.5	31.5	31.5	94	30.0	1	3	248	0.00	29.626 
20:55	31.5	31.5	31.5	94	30.0	0	2	248	0.00	29.626 
21:00	31.5	31.5	31.5	94	30.0	1	4	248	0.00	29.625 
21:05	31.3	31.3	31.3	94	29.8	1	2	248	0.00	29.625 
21:10	31.3	31.3	31.3	94	29.8	0	3	248	0.00	29.625 
21:15	31.3	31.3	31.3	94	29.8	0	2	248	0.00	29.628 
21:20	31.3	31.3	31.3	94	29.8	1	3	248	0.00	29.628 
21:25	31.2	31.2	31.2	94	29.7	0	3	248	0.00	29.628 
21:30	31.2	31.2	31.2	94	29.7	1	3	248	0.00	29.628 
21:35	31.2	31.2	31.2	94	29.7	0	2	248	0.00	29.628 
21:40	31.2	31.2	31.2	94	29.7	0	3	248	0.00	29.628 
21:45	31.2	31.2	31.2	94	29.7	0	2	248	0.00	29.628 
21:50	31.2	31.2	31.2	94	29.7	1	4	248	0.00	29.628 
21:55	31.2	31.2	31.2	94	29.7	1	4	248	0.00	29.628 
22:00	31.0	31.0	31.0	94	29.5	1	4	248	0.00	29.628 
22:05	31.0	31.0	31.0	94	29.5	1	4	248	0.00	29.628 
22:10	31.0	31.0	31.0	94	29.5	1	4	248	0.00	29.628 
22:15	31.0	31.0	31.0	94	29.5	1	4	248	0.00	29.627 
22:20	31.0	31.0	31.0	94	29.5	1	3	248	0.00	29.627 
22:25	31.0	31.0	31.0	94	29.5	1	4	248	0.00	29.627 
22:30	31.0	31.0	31.0	94	29.5	1	5	248	0.00	29.627 
22:35	31.0	31.0	31.0	94	29.5	2	6	248	0.00	29.627 
22:40	31.0	31.0	31.0	94	29.5	0	2	248	0.00	29.627 
22:45	31.0	31.0	31.0	94	29.5	1	4	248	0.00	29.618 
22:50	31.0	31.0	31.0	93	29.2	1	4	248	0.00	29.618 
22:55	31.0	31.0	31.0	93	29.2	1	4	248	0.00	29.618 
23:00	31.0	31.0	31.0	93	29.2	1	3	248	0.00	29.616 
23:05	31.0	31.0	31.0	93	29.2	0	2	248	0.00	29.616 
23:10	31.2	31.2	31.2	93	29.4	1	3	248	0.00	29.616 
23:15	31.0	31.0	31.0	93	29.2	1	4	248	0.00	29.614 
23:20	31.0	31.0	31.0	93	29.2	1	3	248	0.00	29.614 
23:25	31.2	31.2	31.2	93	29.4	0	3	248	0.00	29.614 
23:30	31.2	31.2	31.2	93	29.4	0	3	248	0.00	29.613 
23:35	31.2	31.2	31.2	93	29.4	0	5	248	0.00	29.613 
23:40	31.2	31.2	31.2	93	29.4	0	3	248	0.00	29.613 
23:45	31.2	31.2	31.2	93	29.4	1	3	248	0.00	29.614 
23:50	31.2	31.2	31.2	93	29.4	1	3	248	0.00	29.614 
23:55	31.2	31.2	31.2	93	29.4	1	4	248	0.00	29.614 

CoCoRaHS
IN-AL-39
A2 Web Hosting
Creative Commons License
GoDaddy
search engine by freefind advanced

loaded 2018-11-22 05:44:18 • last modified 2010-11-18 10:43:29
Privacy PolicyDisclaimer
• wx.awcolley.com is powered by PmWiki v.2002016 •
• all content (unless otherwise noted) © 2018 A W Colley